createdAt,value
2022-08-19T00:00:15.035Z,2.15
2022-08-19T00:01:13.292Z,2.15
2022-08-19T00:02:10.877Z,2.82
2022-08-19T00:03:14.924Z,2.82
2022-08-19T00:04:13.568Z,2.5
2022-08-19T00:05:12.769Z,1.51
2022-08-19T00:06:12.783Z,2.89
2022-08-19T00:07:10.157Z,2.89
2022-08-19T00:08:15.314Z,2.95
2022-08-19T00:09:14.828Z,2.95
2022-08-19T00:10:11.500Z,2.95
2022-08-19T00:11:25.241Z,2.46
2022-08-19T00:12:13.231Z,2.46
2022-08-19T00:13:12.654Z,2.46
2022-08-19T00:14:13.291Z,1.72
2022-08-19T00:15:16.823Z,1.72
2022-08-19T00:16:10.728Z,2.12
2022-08-19T00:17:13.481Z,2.59
2022-08-19T00:18:13.259Z,2.59
2022-08-19T00:19:14.062Z,1.91
2022-08-19T00:20:05.007Z,2.19
2022-08-19T00:21:10.424Z,1.88
2022-08-19T00:22:17.518Z,2.61
2022-08-19T00:23:16.255Z,2.61
2022-08-19T00:24:16.588Z,1.61
2022-08-19T00:25:14.429Z,2.38
2022-08-19T00:26:13.649Z,2.38
2022-08-19T00:27:28.549Z,2.49
2022-08-19T00:28:04.562Z,2.49
2022-08-19T00:29:15.866Z,2.58
2022-08-19T00:30:12.679Z,2.04
2022-08-19T00:31:11.056Z,3.26
2022-08-19T00:32:15.839Z,2.68
2022-08-19T00:33:13.485Z,2.68
2022-08-19T00:34:14.001Z,3.34
2022-08-19T00:35:15.826Z,2.86
2022-08-19T00:36:13.769Z,2.86
2022-08-19T00:37:12.358Z,2.15
2022-08-19T00:38:14.657Z,2.15
2022-08-19T00:39:21.535Z,2.11
2022-08-19T00:40:06.403Z,2.11
2022-08-19T00:41:17.437Z,2.81
2022-08-19T00:42:12.322Z,2.22
2022-08-19T00:43:13.863Z,2.84
2022-08-19T00:44:14.944Z,2.49
2022-08-19T00:45:16.072Z,2.42
2022-08-19T00:46:13.115Z,2.02
2022-08-19T00:47:16.450Z,2.58
2022-08-19T00:48:16.892Z,2.85
2022-08-19T00:49:16.250Z,2.85
2022-08-19T00:50:06.923Z,2.63
2022-08-19T00:51:05.422Z,2.63
2022-08-19T00:52:15.333Z,2.02
2022-08-19T00:53:18.346Z,2.98
2022-08-19T00:54:15.038Z,1.94
2022-08-19T00:55:10.599Z,2.21
2022-08-19T00:56:15.438Z,1.96
2022-08-19T00:57:13.622Z,1.98
2022-08-19T00:58:13.083Z,2.39
2022-08-19T00:59:14.740Z,2.39
2022-08-19T01:00:13.754Z,2.39
2022-08-19T01:01:14.682Z,2.29
2022-08-19T01:02:14.067Z,2.09
2022-08-19T01:03:12.313Z,2.09
2022-08-19T01:04:13.761Z,2.24
2022-08-19T01:05:13.983Z,2.08
2022-08-19T01:06:13.313Z,2.55
2022-08-19T01:07:21.825Z,2.55
2022-08-19T01:08:13.585Z,2.05
2022-08-19T01:09:18.583Z,2.12
2022-08-19T01:10:14.515Z,1.78
2022-08-19T01:11:17.299Z,1.78
2022-08-19T01:12:15.088Z,1.86
2022-08-19T01:13:11.846Z,1.86
2022-08-19T01:14:14.204Z,2.18
2022-08-19T01:15:13.758Z,3.69
2022-08-19T01:16:18.853Z,1.86
2022-08-19T01:17:08.472Z,1.86
2022-08-19T01:18:16.029Z,2.28
2022-08-19T01:19:13.132Z,2.28
2022-08-19T01:20:16.254Z,2.88
2022-08-19T01:21:06.927Z,2.03
2022-08-19T01:22:21.245Z,2.16
2022-08-19T01:23:11.436Z,2.16
2022-08-19T01:24:11.421Z,1.66
2022-08-19T01:25:17.188Z,1.66
2022-08-19T01:26:14.877Z,2.02
2022-08-19T01:27:15.407Z,2.39
2022-08-19T01:28:16.379Z,2.39
2022-08-19T01:29:13.362Z,2.26
2022-08-19T01:30:13.491Z,2.15
2022-08-19T01:31:26.622Z,2.15
2022-08-19T01:32:36.080Z,1.83
2022-08-19T01:34:14.226Z,2.48
2022-08-19T01:35:14.722Z,2.48
2022-08-19T01:36:13.455Z,2.48
2022-08-19T01:37:14.430Z,2.65
2022-08-19T01:38:11.754Z,2.36
2022-08-19T01:39:16.389Z,2.36
2022-08-19T01:40:13.911Z,2.36
2022-08-19T01:41:14.977Z,2.36
2022-08-19T01:42:12.236Z,2.28
2022-08-19T01:43:13.574Z,2.28
2022-08-19T01:44:20.534Z,2.69
2022-08-19T01:45:11.561Z,2.69
2022-08-19T01:46:15.833Z,1.71
2022-08-19T01:47:15.903Z,1.71
2022-08-19T01:48:14.844Z,2.67
2022-08-19T01:49:11.444Z,2.66
2022-08-19T01:50:13.976Z,2.66
2022-08-19T01:51:07.381Z,2.04
2022-08-19T01:52:16.244Z,2.26
2022-08-19T01:53:15.329Z,2.26
2022-08-19T01:54:13.779Z,2.26
2022-08-19T01:55:11.408Z,2.64
2022-08-19T01:56:13.694Z,2.32
2022-08-19T01:57:12.125Z,2.98
2022-08-19T01:58:13.033Z,2.98
2022-08-19T01:59:12.787Z,2.26
2022-08-19T02:00:16.084Z,2.26
2022-08-19T02:01:15.442Z,2.81
2022-08-19T02:02:20.625Z,2.81
2022-08-19T02:03:05.633Z,2.81
2022-08-19T02:04:17.153Z,2.84
2022-08-19T02:05:13.496Z,2.84
2022-08-19T02:06:13.801Z,2.84
2022-08-19T02:07:14.004Z,3.06
2022-08-19T02:08:14.280Z,1.74
2022-08-19T02:09:14.588Z,1.74
2022-08-19T02:10:14.336Z,1.74
2022-08-19T02:11:11.669Z,3.49
2022-08-19T02:12:11.267Z,1.98
2022-08-19T02:13:13.688Z,1.77
2022-08-19T02:14:12.879Z,1.77
2022-08-19T02:15:09.169Z,2.49
2022-08-19T02:16:14.260Z,2.39
2022-08-19T02:17:11.797Z,3.24
2022-08-19T02:18:13.013Z,2.66
2022-08-19T02:19:15.607Z,2.98
2022-08-19T02:20:17.401Z,1.93
2022-08-19T02:21:13.292Z,1.93
2022-08-19T02:22:16.351Z,2.15
2022-08-19T02:23:16.008Z,2.34
2022-08-19T02:24:14.433Z,2.31
2022-08-19T02:25:13.590Z,2.31
2022-08-19T02:26:11.859Z,2.12
2022-08-19T02:27:15.589Z,1.52
2022-08-19T02:28:12.986Z,1.52
2022-08-19T02:29:19.381Z,1.45
2022-08-19T02:30:16.661Z,1.45
2022-08-19T02:31:17.583Z,2.52
2022-08-19T02:32:14.544Z,1.52
2022-08-19T02:33:16.131Z,1.8
2022-08-19T02:34:15.664Z,1.8
2022-08-19T02:35:14.511Z,1.55
2022-08-19T02:36:14.038Z,1.55
2022-08-19T02:37:14.028Z,2.25
2022-08-19T02:38:14.784Z,1.71
2022-08-19T02:39:14.333Z,2.1
2022-08-19T02:40:14.837Z,1.82
2022-08-19T02:41:12.580Z,2.01
2022-08-19T02:42:14.218Z,2.01
2022-08-19T02:43:13.141Z,1.94
2022-08-19T02:44:32.193Z,1.94
2022-08-19T02:45:13.785Z,2.05
2022-08-19T02:46:12.286Z,2.91
2022-08-19T02:47:15.187Z,2.19
2022-08-19T02:48:23.665Z,2.19
2022-08-19T02:49:10.847Z,1.72
2022-08-19T02:50:14.368Z,1.72
2022-08-19T02:51:16.049Z,2.19
2022-08-19T02:52:12.901Z,2.19
2022-08-19T02:53:11.697Z,2.3
2022-08-19T02:54:12.739Z,2.3
2022-08-19T02:55:11.381Z,2.3
2022-08-19T02:56:14.484Z,1.64
2022-08-19T02:57:12.132Z,1.64
2022-08-19T02:58:13.329Z,1.76
2022-08-19T02:59:15.554Z,2.14
2022-08-19T03:00:12.117Z,1.81
2022-08-19T03:01:15.128Z,1.81
2022-08-19T03:02:16.140Z,1.81
2022-08-19T03:03:11.689Z,2.19
2022-08-19T03:04:12.493Z,2.19
2022-08-19T03:05:12.345Z,1.82
2022-08-19T03:06:15.846Z,1.7
2022-08-19T03:07:13.769Z,1.7
2022-08-19T03:08:12.219Z,1.7
2022-08-19T03:09:13.781Z,2.78
2022-08-19T03:10:16.918Z,2.78
2022-08-19T03:11:20.313Z,2.19
2022-08-19T03:12:09.678Z,2.19
2022-08-19T03:13:16.603Z,2.33
2022-08-19T03:14:15.236Z,1.78
2022-08-19T03:15:13.951Z,1.78
2022-08-19T03:16:12.115Z,2.35
2022-08-19T03:17:10.423Z,2.35
2022-08-19T03:18:11.968Z,2.31
2022-08-19T03:19:14.226Z,2.31
2022-08-19T03:20:13.008Z,2.08
2022-08-19T03:21:16.893Z,2.75
2022-08-19T03:22:17.144Z,2.75
2022-08-19T03:23:04.879Z,2.15
2022-08-19T03:24:09.481Z,2.39
2022-08-19T03:25:10.869Z,2.39
2022-08-19T03:26:18.414Z,1.79
2022-08-19T03:27:17.225Z,1.79
2022-08-19T03:28:16.150Z,1.79
2022-08-19T03:29:31.224Z,1.92
2022-08-19T03:30:13.872Z,2.58
2022-08-19T03:31:52.390Z,2.41
2022-08-19T03:32:34.714Z,1.33
2022-08-19T03:33:10.547Z,1.33
2022-08-19T03:34:10.228Z,1.58
2022-08-19T03:35:18.739Z,2.44
2022-08-19T03:36:13.400Z,2.44
2022-08-19T03:37:13.504Z,1.51
2022-08-19T03:38:12.357Z,1.92
2022-08-19T03:39:13.600Z,1.92
2022-08-19T03:40:18.600Z,1.92
2022-08-19T03:41:13.203Z,2.22
2022-08-19T03:42:50.626Z,2.22
2022-08-19T03:43:15.418Z,1.63
2022-08-19T03:44:19.959Z,1.63
2022-08-19T03:45:14.522Z,2.26
2022-08-19T03:46:15.446Z,2.26
2022-08-19T03:47:16.776Z,2.39
2022-08-19T03:48:11.507Z,0.95
2022-08-19T03:49:18.076Z,0.95
2022-08-19T03:50:15.324Z,0.95
2022-08-19T03:51:33.205Z,2.06
2022-08-19T03:52:05.076Z,2.06
2022-08-19T03:53:14.390Z,2.06
2022-08-19T03:54:14.115Z,1.64
2022-08-19T03:55:14.432Z,1.7
2022-08-19T03:56:11.671Z,1.82
2022-08-19T03:57:16.375Z,1.82
2022-08-19T03:58:12.823Z,1.3
2022-08-19T03:59:20.720Z,1.61
2022-08-19T04:00:15.753Z,1.61
2022-08-19T04:01:05.912Z,2.05
2022-08-19T04:02:17.691Z,1.83
2022-08-19T04:03:17.870Z,1.83
2022-08-19T04:04:13.105Z,1.83
2022-08-19T04:05:16.400Z,2.24
2022-08-19T04:06:12.696Z,2.24
2022-08-19T04:07:12.999Z,1.78
2022-08-19T04:08:16.208Z,1.92
2022-08-19T04:09:29.406Z,1.41
2022-08-19T04:10:07.158Z,1.41
2022-08-19T04:11:12.591Z,1.62
2022-08-19T04:12:13.559Z,1.62
2022-08-19T04:13:15.627Z,2.59
2022-08-19T04:14:17.606Z,2.59
2022-08-19T04:15:16.206Z,1.92
2022-08-19T04:16:14.360Z,2.06
2022-08-19T04:17:14.798Z,1.87
2022-08-19T04:18:05.776Z,1.87
2022-08-19T04:19:14.445Z,1.99
2022-08-19T04:20:15.985Z,1.99
2022-08-19T04:21:15.385Z,1.73
2022-08-19T04:22:12.433Z,1.73
2022-08-19T04:23:12.185Z,2.29
2022-08-19T04:24:14.939Z,2.14
2022-08-19T04:25:17.986Z,1.32
2022-08-19T04:26:06.899Z,1.32
2022-08-19T04:27:17.754Z,2.19
2022-08-19T04:28:12.945Z,1.12
2022-08-19T04:29:19.540Z,1.65
2022-08-19T04:30:14.480Z,1.65
2022-08-19T04:31:06.831Z,2.28
2022-08-19T04:32:15.758Z,2.28
2022-08-19T04:33:17.341Z,1.56
2022-08-19T04:34:12.048Z,1.56
2022-08-19T04:35:23.224Z,1.19
2022-08-19T04:36:22.956Z,1.19
2022-08-19T04:37:12.801Z,1.42
2022-08-19T04:38:04.900Z,1.42
2022-08-19T04:39:16.992Z,2.12
2022-08-19T04:40:15.922Z,1.61
2022-08-19T04:41:16.352Z,1.19
2022-08-19T04:42:14.575Z,1.19
2022-08-19T04:43:10.608Z,0.91
2022-08-19T04:44:13.857Z,0.91
2022-08-19T04:45:14.442Z,0.91
2022-08-19T04:46:39.121Z,1.18
2022-08-19T04:47:57.903Z,1.12
2022-08-19T04:48:29.648Z,1.12
2022-08-19T04:50:13.699Z,1.92
2022-08-19T04:51:12.483Z,1.12
2022-08-19T04:52:18.859Z,1.79
2022-08-19T04:53:14.402Z,1.2
2022-08-19T04:54:12.437Z,1.2
2022-08-19T04:55:13.092Z,1.52
2022-08-19T04:56:16.065Z,1.52
2022-08-19T04:57:12.589Z,1.92
2022-08-19T04:58:22.479Z,1.78
2022-08-19T04:59:10.352Z,1.22
2022-08-19T05:00:08.034Z,1.22
2022-08-19T05:01:14.341Z,1.52
2022-08-19T05:02:16.070Z,0.91
2022-08-19T05:03:14.744Z,0.91
2022-08-19T05:04:14.089Z,1.11
2022-08-19T05:05:14.189Z,1.11
2022-08-19T05:06:13.092Z,1.31
2022-08-19T05:07:12.352Z,1.31
2022-08-19T05:08:17.473Z,1.42
2022-08-19T05:09:11.785Z,1.42
2022-08-19T05:10:13.473Z,1.39
2022-08-19T05:11:16.307Z,1.39
2022-08-19T05:12:14.362Z,1.54
2022-08-19T05:13:14.328Z,1.54
2022-08-19T05:14:05.305Z,1.54
2022-08-19T05:15:15.941Z,1.3
2022-08-19T05:16:14.524Z,1.11
2022-08-19T05:17:33.444Z,1.11
2022-08-19T05:18:11.697Z,1.16
2022-08-19T05:19:12.835Z,1.16
2022-08-19T05:20:10.610Z,1.65
2022-08-19T05:21:14.575Z,1.65
2022-08-19T05:22:10.975Z,1.6
2022-08-19T05:23:24.639Z,1.6
2022-08-19T05:24:12.728Z,2.59
2022-08-19T05:25:15.896Z,2.59
2022-08-19T05:26:12.122Z,6.31
2022-08-19T05:27:14.926Z,3.22
2022-08-19T05:28:14.177Z,3.22
2022-08-19T05:29:05.584Z,3.22
2022-08-19T05:30:24.477Z,1.87
2022-08-19T05:31:12.073Z,1.87
2022-08-19T05:32:12.735Z,1.87
2022-08-19T05:33:09.793Z,1.74
2022-08-19T05:34:22.589Z,1.44
2022-08-19T05:35:11.948Z,1.2
2022-08-19T05:36:16.682Z,1.2
2022-08-19T05:37:09.431Z,1.51
2022-08-19T05:38:15.834Z,1.51
2022-08-19T05:39:16.482Z,1.35
2022-08-19T05:40:15.444Z,1.75
2022-08-19T05:41:12.706Z,1.75
2022-08-19T05:42:05.376Z,1.35
2022-08-19T05:43:15.836Z,1.39
2022-08-19T05:44:13.542Z,1.06
2022-08-19T05:45:11.576Z,0.78
2022-08-19T05:46:15.319Z,0.78
2022-08-19T05:47:13.265Z,0.82
2022-08-19T05:48:27.990Z,0.82
2022-08-19T05:49:03.976Z,1.42
2022-08-19T05:50:18.759Z,0.9
2022-08-19T05:51:11.180Z,1.24
2022-08-19T05:52:14.840Z,1.37
2022-08-19T05:53:11.808Z,1.37
2022-08-19T05:54:20.548Z,1.26
2022-08-19T05:55:10.114Z,1.9
2022-08-19T05:56:14.302Z,1.43
2022-08-19T05:57:15.423Z,0.82
2022-08-19T05:58:14.448Z,1.39
2022-08-19T05:59:12.631Z,1.65
2022-08-19T06:00:14.598Z,1.65
2022-08-19T06:01:12.028Z,1.65
2022-08-19T06:02:14.376Z,1.77
2022-08-19T06:03:15.501Z,1.77
2022-08-19T06:04:13.491Z,0.65
2022-08-19T06:05:12.706Z,0.65
2022-08-19T06:06:11.741Z,1.16
2022-08-19T06:07:18.948Z,1.16
2022-08-19T06:08:06.033Z,1.29
2022-08-19T06:09:09.265Z,1.29
2022-08-19T06:10:17.401Z,1.03
2022-08-19T06:11:15.429Z,1.03
2022-08-19T06:12:16.618Z,1.03
2022-08-19T06:13:19.085Z,1.07
2022-08-19T06:14:18.623Z,1.07
2022-08-19T06:15:15.040Z,1.23
2022-08-19T06:16:11.871Z,1.23
2022-08-19T06:17:15.938Z,1.32
2022-08-19T06:18:14.529Z,1.32
2022-08-19T06:19:13.323Z,0.58
2022-08-19T06:20:10.846Z,0.81
2022-08-19T06:21:12.609Z,0.81
2022-08-19T06:22:12.760Z,0.98
2022-08-19T06:23:19.321Z,0.98
2022-08-19T06:24:07.329Z,0.75
2022-08-19T06:25:14.290Z,1.07
2022-08-19T06:26:18.644Z,1.34
2022-08-19T06:27:10.728Z,1.05
2022-08-19T06:28:17.671Z,1.05
2022-08-19T06:29:11.451Z,0.72
2022-08-19T06:30:11.852Z,0.72
2022-08-19T06:31:13.141Z,0.52
2022-08-19T06:32:17.738Z,0.52
2022-08-19T06:33:14.025Z,0.52
2022-08-19T06:34:15.432Z,0.85
2022-08-19T06:35:18.340Z,0.97
2022-08-19T06:36:15.119Z,0.89
2022-08-19T06:37:16.838Z,0.89
2022-08-19T06:38:16.733Z,1.24
2022-08-19T06:39:16.744Z,1.14
2022-08-19T06:40:07.430Z,1.03
2022-08-19T06:41:20.122Z,1.01
2022-08-19T06:42:13.251Z,0.85
2022-08-19T06:43:13.844Z,0.85
2022-08-19T06:44:15.359Z,1
2022-08-19T06:45:14.843Z,1
2022-08-19T06:46:16.665Z,1.02
2022-08-19T06:47:23.259Z,1.02
2022-08-19T06:48:10.194Z,1.02
2022-08-19T06:49:13.057Z,0.77
2022-08-19T06:50:10.317Z,0.77
2022-08-19T06:51:13.651Z,0.76
2022-08-19T06:52:16.012Z,0.96
2022-08-19T06:53:11.803Z,1.73
2022-08-19T06:54:21.721Z,1.68
2022-08-19T06:55:11.894Z,1.68
2022-08-19T06:56:11.274Z,1.68
2022-08-19T06:57:11.510Z,1.04
2022-08-19T06:58:14.039Z,0.78
2022-08-19T06:59:13.235Z,1.39
2022-08-19T07:00:15.145Z,1.39
2022-08-19T07:01:16.500Z,2.03
2022-08-19T07:02:12.261Z,1.28
2022-08-19T07:03:18.199Z,0.69
2022-08-19T07:04:17.294Z,0.69
2022-08-19T07:05:16.332Z,0.87
2022-08-19T07:06:43.252Z,0.77
2022-08-19T07:07:23.054Z,1.43
2022-08-19T07:08:07.197Z,1.43
2022-08-19T07:09:20.429Z,1
2022-08-19T07:10:09.876Z,1
2022-08-19T07:11:13.012Z,0.91
2022-08-19T07:12:15.345Z,0.79
2022-08-19T07:13:14.144Z,1.76
2022-08-19T07:14:21.900Z,1.01
2022-08-19T07:15:12.557Z,0.78
2022-08-19T07:16:30.895Z,1.13
2022-08-19T07:17:10.355Z,1.13
2022-08-19T07:18:05.542Z,1.08
2022-08-19T07:19:18.790Z,0.95
2022-08-19T07:20:20.612Z,0.95
2022-08-19T07:21:12.423Z,0.89
2022-08-19T07:22:15.172Z,1.26
2022-08-19T07:23:18.946Z,1.06
2022-08-19T07:24:25.451Z,1.06
2022-08-19T07:25:16.936Z,1.14
2022-08-19T07:26:11.530Z,0.89
2022-08-19T07:27:17.538Z,1.42
2022-08-19T07:28:27.764Z,1.42
2022-08-19T07:29:13.618Z,0.68
2022-08-19T07:30:15.087Z,1.27
2022-08-19T07:31:08.101Z,1.27
2022-08-19T07:32:15.757Z,0.82
2022-08-19T07:33:18.857Z,1.07
2022-08-19T07:34:13.241Z,0.72
2022-08-19T07:35:14.598Z,1.29
2022-08-19T07:36:17.449Z,1.29
2022-08-19T07:37:14.835Z,1.45
2022-08-19T07:38:15.739Z,1.49
2022-08-19T07:39:19.948Z,0.76
2022-08-19T07:40:16.197Z,1.34
2022-08-19T07:41:23.921Z,1.98
2022-08-19T07:42:15.897Z,0.52
2022-08-19T07:43:04.952Z,0.52
2022-08-19T07:44:17.753Z,1.29
2022-08-19T07:45:14.815Z,0.86
2022-08-19T07:47:51.466Z,1.39
2022-08-19T07:48:11.331Z,0.85
2022-08-19T07:49:19.025Z,0.85
2022-08-19T07:50:13.543Z,0.86
2022-08-19T07:51:16.426Z,0.86
2022-08-19T07:52:11.454Z,0.61
2022-08-19T07:53:11.185Z,0.54
2022-08-19T07:54:13.697Z,1.18
2022-08-19T07:55:44.665Z,0.88
2022-08-19T07:56:12.241Z,0.88
2022-08-19T07:57:15.503Z,0.57
2022-08-19T07:58:15.600Z,1.11
2022-08-19T07:59:13.662Z,1.11
2022-08-19T08:00:13.837Z,1.34
2022-08-19T08:01:13.756Z,0.98
2022-08-19T08:02:12.499Z,1.19
2022-08-19T08:03:12.508Z,0.88
2022-08-19T08:04:15.816Z,0.88
2022-08-19T08:05:16.718Z,1.21
2022-08-19T08:06:18.794Z,1.09
2022-08-19T08:07:11.607Z,1.09
2022-08-19T08:08:06.472Z,1.61
2022-08-19T08:10:07.335Z,1.61
2022-08-19T08:11:13.394Z,1.78
2022-08-19T08:12:35.419Z,1.78
2022-08-19T08:13:13.339Z,2.01
2022-08-19T08:14:36.969Z,2.01
2022-08-19T08:15:12.577Z,2.75
2022-08-19T08:16:16.672Z,1.21
2022-08-19T08:17:51.486Z,1.81
2022-08-19T08:18:06.857Z,1.81
2022-08-19T08:19:27.488Z,1.61
2022-08-19T08:20:15.720Z,2.08
2022-08-19T08:21:13.513Z,2.08
2022-08-19T08:22:16.839Z,2.34
2022-08-19T08:23:16.931Z,1.27
2022-08-19T08:24:11.618Z,1.27
2022-08-19T08:25:13.394Z,2.62
2022-08-19T08:26:19.404Z,2.56
2022-08-19T08:27:14.745Z,3.64
2022-08-19T08:28:20.385Z,3.64
2022-08-19T08:29:15.144Z,3.64
2022-08-19T08:30:16.456Z,3.37
2022-08-19T08:31:15.270Z,3.37
2022-08-19T08:32:17.014Z,3.29
2022-08-19T08:33:13.811Z,2.47
2022-08-19T08:34:13.950Z,2.47
2022-08-19T08:35:14.299Z,4.88
2022-08-19T08:36:15.923Z,3.27
2022-08-19T08:37:11.743Z,3.27
2022-08-19T08:38:15.881Z,4.16
2022-08-19T08:39:18.125Z,4.07
2022-08-19T08:40:16.544Z,4.07
2022-08-19T08:41:12.903Z,4.07
2022-08-19T08:42:19.957Z,4.2
2022-08-19T08:43:14.263Z,4.5
2022-08-19T08:44:20.053Z,2.89
2022-08-19T08:45:13.403Z,2.89
2022-08-19T08:46:14.561Z,2.89
2022-08-19T08:47:12.494Z,3.06
2022-08-19T08:48:26.187Z,3.52
2022-08-19T08:49:13.486Z,3.52
2022-08-19T08:50:15.033Z,3.73
2022-08-19T08:51:12.455Z,3.73
2022-08-19T08:52:17.210Z,2.92
2022-08-19T08:53:12.113Z,2.92
2022-08-19T08:54:11.974Z,2.86
2022-08-19T08:55:13.996Z,2.76
2022-08-19T08:56:14.142Z,2.56
2022-08-19T08:57:15.952Z,2.56
2022-08-19T08:58:13.767Z,3.31
2022-08-19T08:59:11.621Z,3.31
2022-08-19T09:00:18.114Z,1.97
2022-08-19T09:01:16.620Z,2.89
2022-08-19T09:02:12.352Z,2.89
2022-08-19T09:03:13.457Z,2.89
2022-08-19T09:04:10.362Z,2.84
2022-08-19T09:05:18.994Z,2.86
2022-08-19T09:06:14.123Z,2.86
2022-08-19T09:07:37.438Z,2.31
2022-08-19T09:08:15.931Z,3.35
2022-08-19T09:09:14.553Z,3.35
2022-08-19T09:10:12.136Z,3.35
2022-08-19T09:11:12.680Z,2.36
2022-08-19T09:12:13.948Z,3.01
2022-08-19T09:13:14.014Z,3.01
2022-08-19T09:14:52.477Z,3.05
2022-08-19T09:15:12.224Z,2.16
2022-08-19T09:16:11.006Z,2.16
2022-08-19T09:17:14.225Z,2.4
2022-08-19T09:18:21.530Z,3.02
2022-08-19T09:19:11.086Z,2.26
2022-08-19T09:20:15.370Z,3.96
2022-08-19T09:21:09.055Z,3.96
2022-08-19T09:22:27.713Z,2.31
2022-08-19T09:23:11.166Z,2.31
2022-08-19T09:24:14.046Z,3.35
2022-08-19T09:25:07.578Z,3.35
2022-08-19T09:26:13.787Z,3.39
2022-08-19T09:27:20.929Z,3.28
2022-08-19T09:28:25.463Z,2.68
2022-08-19T09:29:12.689Z,2.68
2022-08-19T09:30:17.894Z,3.8
2022-08-19T09:31:15.023Z,3.8
2022-08-19T09:32:29.115Z,3.07
2022-08-19T09:33:12.628Z,2.5
2022-08-19T09:34:23.485Z,2.94
2022-08-19T09:35:12.297Z,4.1
2022-08-19T09:36:34.638Z,4
2022-08-19T09:37:17.213Z,4
2022-08-19T09:38:14.700Z,2.41
2022-08-19T09:39:18.420Z,2.89
2022-08-19T09:40:11.876Z,2.89
2022-08-19T09:41:17.607Z,2.75
2022-08-19T09:42:30.139Z,2.75
2022-08-19T09:43:15.230Z,2.86
2022-08-19T09:44:12.495Z,2.86
2022-08-19T09:45:13.819Z,3.78
2022-08-19T09:46:20.136Z,3.78
2022-08-19T09:47:15.124Z,3.78
2022-08-19T09:48:23.547Z,3.66
2022-08-19T09:49:11.388Z,3.66
2022-08-19T09:50:18.731Z,2.69
2022-08-19T09:51:13.973Z,2.17
2022-08-19T09:52:15.887Z,3.05
2022-08-19T09:53:17.602Z,3.05
2022-08-19T09:54:13.650Z,3.01
2022-08-19T09:55:16.287Z,3.01
2022-08-19T09:56:13.210Z,2.45
2022-08-19T09:57:17.135Z,3.94
2022-08-19T09:58:13.819Z,2.91
2022-08-19T09:59:10.082Z,3.93
2022-08-19T10:00:11.707Z,3.93
2022-08-19T10:01:17.523Z,2.47
2022-08-19T10:02:14.791Z,2.47
2022-08-19T10:03:13.685Z,1.93
2022-08-19T10:04:22.541Z,2.71
2022-08-19T10:05:13.365Z,2.54
2022-08-19T10:06:19.212Z,2.54
2022-08-19T10:07:10.752Z,3.36
2022-08-19T10:08:15.987Z,3.36
2022-08-19T10:09:12.483Z,3.08
2022-08-19T10:10:12.304Z,3.08
2022-08-19T10:11:39.649Z,2.92
2022-08-19T10:12:13.393Z,2.92
2022-08-19T10:13:15.267Z,2.92
2022-08-19T10:14:12.132Z,1.07
2022-08-19T10:15:13.847Z,1.24
2022-08-19T10:16:14.075Z,1.24
2022-08-19T10:17:26.750Z,1.24
2022-08-19T10:18:13.297Z,2.02
2022-08-19T10:19:12.983Z,1.31
2022-08-19T10:20:10.869Z,1.31
2022-08-19T10:21:18.478Z,1.22
2022-08-19T10:22:14.469Z,0.98
2022-08-19T10:23:14.105Z,1.06
2022-08-19T10:24:20.579Z,0.83
2022-08-19T10:25:29.311Z,1.32
2022-08-19T10:26:05.570Z,1.32
2022-08-19T10:27:19.929Z,1.37
2022-08-19T10:28:12.841Z,0.76
2022-08-19T10:29:14.690Z,0.76
2022-08-19T10:30:16.584Z,0.78
2022-08-19T10:31:12.270Z,0.78
2022-08-19T10:32:13.324Z,0.66
2022-08-19T10:33:55.248Z,0.66
2022-08-19T10:34:22.029Z,1.19
2022-08-19T10:35:12.419Z,1.19
2022-08-19T10:36:12.752Z,1.48
2022-08-19T10:37:29.240Z,0.81
2022-08-19T10:38:06.717Z,0.81
2022-08-19T10:39:13.767Z,0.81
2022-08-19T10:40:15.485Z,0.94
2022-08-19T10:41:13.937Z,1.33
2022-08-19T10:42:15.518Z,1.62
2022-08-19T10:43:15.332Z,1.15
2022-08-19T10:44:27.392Z,1.95
2022-08-19T10:45:09.126Z,1.85
2022-08-19T10:46:19.028Z,1.85
2022-08-19T10:47:31.480Z,1.55
2022-08-19T10:48:15.586Z,1.38
2022-08-19T10:49:13.825Z,1.38
2022-08-19T10:50:13.834Z,1.42
2022-08-19T10:51:25.033Z,1.42
2022-08-19T10:52:23.746Z,1.54
2022-08-19T10:53:11.923Z,1.54
2022-08-19T10:54:14.806Z,1.26
2022-08-19T10:55:10.503Z,1.26
2022-08-19T10:56:16.140Z,1.89
2022-08-19T10:57:15.631Z,1.89
2022-08-19T10:58:14.636Z,1.89
2022-08-19T10:59:16.883Z,1.64
2022-08-19T11:00:13.473Z,1.39
2022-08-19T11:01:13.333Z,1.2
2022-08-19T11:02:16.089Z,1.9
2022-08-19T11:03:15.149Z,1.71
2022-08-19T11:04:12.694Z,1.71
2022-08-19T11:05:17.395Z,1.86
2022-08-19T11:06:15.669Z,1.86
2022-08-19T11:07:13.105Z,0.98
2022-08-19T11:08:25.957Z,1.66
2022-08-19T11:09:17.998Z,0.66
2022-08-19T11:10:17.188Z,1.46
2022-08-19T11:11:14.848Z,1.46
2022-08-19T11:12:14.663Z,1.22
2022-08-19T11:13:12.930Z,1.74
2022-08-19T11:14:14.800Z,1.88
2022-08-19T11:15:15.283Z,1.88
2022-08-19T11:16:13.355Z,2.04
2022-08-19T11:17:14.222Z,2.04
2022-08-19T11:18:15.614Z,1.3
2022-08-19T11:19:13.444Z,1.39
2022-08-19T11:20:14.596Z,1.39
2022-08-19T11:21:16.528Z,1.69
2022-08-19T11:22:12.480Z,1.69
2022-08-19T11:23:12.353Z,1.59
2022-08-19T11:24:17.918Z,0.71
2022-08-19T11:25:17.819Z,1.03
2022-08-19T11:26:07.469Z,1.03
2022-08-19T11:27:18.143Z,1.03
2022-08-19T11:28:14.579Z,0.72
2022-08-19T11:29:13.696Z,0.75
2022-08-19T11:30:18.388Z,0.75
2022-08-19T11:31:08.710Z,0.85
2022-08-19T11:32:16.326Z,1.01
2022-08-19T11:33:09.906Z,1.21
2022-08-19T11:34:17.645Z,0.89
2022-08-19T11:35:11.552Z,0.89
2022-08-19T11:36:20.793Z,1.26
2022-08-19T11:37:08.910Z,1.26
2022-08-19T11:38:16.669Z,1
2022-08-19T11:39:14.603Z,0.79
2022-08-19T11:40:07.965Z,0.79
2022-08-19T11:41:08.574Z,1.91
2022-08-19T11:42:16.249Z,1.32
2022-08-19T11:43:12.551Z,1.32
2022-08-19T11:44:15.806Z,1.32
2022-08-19T11:45:12.332Z,1.56
2022-08-19T11:46:13.906Z,1.99
2022-08-19T11:47:12.948Z,1.34
2022-08-19T11:48:14.469Z,1.42
2022-08-19T11:49:16.317Z,1.26
2022-08-19T11:50:12.513Z,1.12
2022-08-19T11:51:08.403Z,2.27
2022-08-19T11:52:13.030Z,2.24
2022-08-19T11:53:15.463Z,2.24
2022-08-19T11:54:14.267Z,1.91
2022-08-19T11:55:15.374Z,1.06
2022-08-19T11:56:15.415Z,1.66
2022-08-19T11:57:15.605Z,2.29
2022-08-19T11:58:21.084Z,2.29
2022-08-19T11:59:18.056Z,1.39
2022-08-19T12:00:13.740Z,2.21
2022-08-19T12:01:10.758Z,2.58
2022-08-19T12:02:12.758Z,1.76
2022-08-19T12:03:12.454Z,1.76
2022-08-19T12:04:15.893Z,1.89
2022-08-19T12:05:15.125Z,1.76
2022-08-19T12:06:11.828Z,1.79
2022-08-19T12:07:16.841Z,1.79
2022-08-19T12:08:18.357Z,1.48
2022-08-19T12:09:11.513Z,2.27
2022-08-19T12:10:23.421Z,2.27
2022-08-19T12:11:17.198Z,2
2022-08-19T12:12:14.766Z,2
2022-08-19T12:13:15.170Z,1.61
2022-08-19T12:14:16.951Z,1.69
2022-08-19T12:15:12.283Z,1.6
2022-08-19T12:16:12.620Z,1.6
2022-08-19T12:17:12.058Z,1.69
2022-08-19T12:18:12.365Z,1.37
2022-08-19T12:19:13.697Z,1.86
2022-08-19T12:20:14.004Z,1.86
2022-08-19T12:21:15.587Z,1.94
2022-08-19T12:22:10.793Z,2.75
2022-08-19T12:23:15.996Z,1.84
2022-08-19T12:24:11.584Z,1.84
2022-08-19T12:25:16.360Z,2.19
2022-08-19T12:26:11.824Z,2.38
2022-08-19T12:27:15.061Z,2.38
2022-08-19T12:28:11.228Z,1.64
2022-08-19T12:29:13.036Z,1.54
2022-08-19T12:30:12.097Z,1.54
2022-08-19T12:31:14.908Z,2.17
2022-08-19T12:32:15.481Z,2.17
2022-08-19T12:33:13.366Z,1.79
2022-08-19T12:34:12.596Z,1.79
2022-08-19T12:35:11.380Z,1.79
2022-08-19T12:36:18.816Z,1.38
2022-08-19T12:37:12.234Z,1.81
2022-08-19T12:38:16.936Z,1.89
2022-08-19T12:39:15.822Z,1.55
2022-08-19T12:40:09.973Z,1.55
2022-08-19T12:41:11.834Z,1.88
2022-08-19T12:42:11.582Z,1.88
2022-08-19T12:43:13.682Z,1.89
2022-08-19T12:44:16.836Z,1.61
2022-08-19T12:45:15.045Z,1.61
2022-08-19T12:46:15.319Z,1.39
2022-08-19T12:47:14.723Z,1.39
2022-08-19T12:48:36.359Z,1.29
2022-08-19T12:49:55.864Z,1.29
2022-08-19T12:50:15.261Z,1.29
2022-08-19T12:51:13.602Z,1.29
2022-08-19T12:52:09.012Z,1.29
2022-08-19T12:53:13.918Z,1.06
2022-08-19T12:54:16.249Z,1.34
2022-08-19T12:55:13.020Z,1.74
2022-08-19T12:56:14.930Z,1.28
2022-08-19T12:57:10.722Z,1.02
2022-08-19T12:58:14.544Z,2.01
2022-08-19T12:59:13.470Z,1.38
2022-08-19T13:00:13.329Z,1.38
2022-08-19T13:01:11.348Z,1.36
2022-08-19T13:02:13.436Z,1.36
2022-08-19T13:03:11.973Z,2.06
2022-08-19T13:04:13.034Z,0.73
2022-08-19T13:05:15.521Z,1.45
2022-08-19T13:06:15.217Z,1.45
2022-08-19T13:07:18.147Z,1.09
2022-08-19T13:08:13.960Z,1.09
2022-08-19T13:09:16.824Z,1.45
2022-08-19T13:10:14.449Z,1.45
2022-08-19T13:11:15.161Z,1.34
2022-08-19T13:12:16.209Z,1.34
2022-08-19T13:13:15.590Z,0.93
2022-08-19T13:14:13.468Z,1.66
2022-08-19T13:15:19.392Z,1.09
2022-08-19T13:16:06.972Z,1.09
2022-08-19T13:17:15.012Z,1.89
2022-08-19T13:18:12.691Z,1.73
2022-08-19T13:19:18.670Z,1.34
2022-08-19T13:20:15.754Z,1.34
2022-08-19T13:21:15.349Z,1.66
2022-08-19T13:23:15.829Z,1.88
2022-08-19T13:24:07.735Z,1.22
2022-08-19T13:25:13.732Z,1.6